KPSC

Tri-Cities Airport

Pasco, Washington, USA
METAR KPSC 171753Z AUTO 00000KT CLR 10/01 A3034 RMK AO2 SLP276 6//// T01000011 10100 21011 58004 RVRNO $
Observed Flight Rules
Oct-17 @ 17:53 UTC (26 minutes ago)
Clouds
  • Clear skies
Temperatures Readings
Current 10°C / 50°F
Dewpoint 1°C / 34°F
Humidity 54%
Altimeter 30.34" Hg
Pressure 1027.6 hPa
Elevation 121
METAR KPSC 171753Z AUTO 00000KT CLR 10/01 A3034 RMK AO2 SLP276 6//// T01000011 10100 21011 58004 RVRNO $
Observed Flight Rules
Oct-17 @ 17:53 UTC
(26 minutes ago)
Clouds
  • Clear skies
Temperature Dewpoint
10°C / 50°F 1°C / 34°F
Humidity Altimeter Pressure
54% 30.34" Hg 1027.6 hPa